createdAt,value
2022-10-24T00:00:15.007Z,38.10
2022-10-24T00:03:04.178Z,29.58
2022-10-24T00:05:36.463Z,32.75
2022-10-24T00:08:04.092Z,34.83
2022-10-24T00:10:33.861Z,36.38
2022-10-24T00:13:01.446Z,29.95
2022-10-24T00:15:31.421Z,37.63
2022-10-24T00:17:58.473Z,31.63
2022-10-24T00:20:28.232Z,30.45
2022-10-24T00:22:55.368Z,32.92
2022-10-24T00:25:29.845Z,43.25
2022-10-24T00:27:56.889Z,40.55
2022-10-24T00:30:26.391Z,43.58
2022-10-24T00:32:56.377Z,39.50
2022-10-24T00:35:23.805Z,35.60
2022-10-24T00:37:57.727Z,34.90
2022-10-24T00:40:30.125Z,37.70
2022-10-24T00:42:59.785Z,32.63
2022-10-24T00:45:46.333Z,39.33
2022-10-24T00:48:19.118Z,32.15
2022-10-24T00:53:20.510Z,47.58
2022-10-24T00:55:52.059Z,45.92
2022-10-24T00:58:26.414Z,42.05
2022-10-24T01:00:56.565Z,41.75
2022-10-24T01:03:23.899Z,44.20
2022-10-24T01:06:10.207Z,39.90
2022-10-24T01:09:03.430Z,38.40
2022-10-24T01:11:56.435Z,39.85
2022-10-24T01:14:53.035Z,43.65
2022-10-24T01:17:50.319Z,40.40
2022-10-24T01:20:26.565Z,36.50
2022-10-24T01:23:30.328Z,45.60
2022-10-24T01:26:02.687Z,39.35
2022-10-24T01:28:53.298Z,43.75
2022-10-24T01:31:46.837Z,46.25
2022-10-24T01:34:28.870Z,46.20
2022-10-24T01:37:05.495Z,44.28
2022-10-24T01:39:39.669Z,47.15
2022-10-24T01:42:09.554Z,42.72
2022-10-24T01:44:44.283Z,42.42
2022-10-24T01:47:19.355Z,44.80
2022-10-24T01:49:59.156Z,50.17
2022-10-24T01:52:34.133Z,44.95
2022-10-24T01:55:07.172Z,40.72
2022-10-24T01:57:35.576Z,45.42
2022-10-24T02:00:05.049Z,44.28
2022-10-24T02:02:49.912Z,40.45
2022-10-24T02:05:28.457Z,46.60
2022-10-24T02:08:06.673Z,47.90
2022-10-24T02:10:41.876Z,47.22
2022-10-24T02:13:16.122Z,45.45
2022-10-24T02:15:50.290Z,41.85
2022-10-24T02:18:20.737Z,43.25
2022-10-24T02:20:59.626Z,40.80
2022-10-24T02:23:35.147Z,47.63
2022-10-24T02:26:06.674Z,43.63
2022-10-24T02:28:42.224Z,47.53
2022-10-24T02:31:22.098Z,47.45
2022-10-24T02:33:55.242Z,36.65
2022-10-24T02:36:30.447Z,50.15
2022-10-24T02:39:00.494Z,45.28
2022-10-24T02:41:37.714Z,49.15
2022-10-24T02:44:11.468Z,47.33
2022-10-24T02:46:42.582Z,43.03
2022-10-24T02:49:12.519Z,46.63
2022-10-24T02:51:47.942Z,45.58
2022-10-24T02:54:15.534Z,43.72
2022-10-24T02:56:58.248Z,48.22
2022-10-24T02:59:25.322Z,44.20
2022-10-24T03:01:55.054Z,45.53
2022-10-24T03:04:22.291Z,47.20
2022-10-24T03:06:56.766Z,46.17
2022-10-24T03:09:31.016Z,48.60
2022-10-24T03:12:00.442Z,41.90
2022-10-24T03:14:27.737Z,46.08
2022-10-24T03:16:59.617Z,46.60
2022-10-24T03:19:28.690Z,48.17
2022-10-24T03:21:58.306Z,44.58
2022-10-24T03:24:43.991Z,43.20
2022-10-24T03:27:26.433Z,45.70
2022-10-24T03:29:57.860Z,44.70
2022-10-24T03:34:59.617Z,39.30
2022-10-24T03:37:29.701Z,41.70
2022-10-24T03:39:59.865Z,41.83
2022-10-24T03:42:32.019Z,43.38
2022-10-24T03:45:01.561Z,44.08
2022-10-24T03:47:33.846Z,41.38
2022-10-24T03:50:06.725Z,42.28
2022-10-24T03:52:39.235Z,39.67
2022-10-24T03:57:38.697Z,39.13
2022-10-24T04:00:10.905Z,45.20
2022-10-24T04:02:40.274Z,38.85
2022-10-24T04:05:13.431Z,40.35
2022-10-24T04:07:46.098Z,39.17
2022-10-24T04:10:15.974Z,44.13
2022-10-24T04:12:47.829Z,44.35
2022-10-24T04:15:14.877Z,45.55
2022-10-24T04:17:47.343Z,40.15
2022-10-24T04:20:20.013Z,40.60
2022-10-24T04:22:47.665Z,39.53
2022-10-24T04:25:18.440Z,35.78
2022-10-24T04:27:48.429Z,37.35
2022-10-24T04:30:20.052Z,34.45
2022-10-24T04:32:49.513Z,40.28
2022-10-24T04:35:19.313Z,41.15
2022-10-24T04:37:46.521Z,33.90
2022-10-24T04:40:15.724Z,36.85
2022-10-24T04:42:43.336Z,33.20
2022-10-24T04:45:15.721Z,35.42
2022-10-24T04:47:43.351Z,38.90
2022-10-24T04:50:15.190Z,41.20
2022-10-24T04:52:47.499Z,37.33
2022-10-24T04:55:14.561Z,41.35
2022-10-24T04:57:41.978Z,36.47
2022-10-24T05:00:12.046Z,37.67
2022-10-24T05:02:39.364Z,37.47
2022-10-24T05:05:17.127Z,37.17
2022-10-24T05:07:48.039Z,39.42
2022-10-24T05:10:16.156Z,35.17
2022-10-24T05:12:45.792Z,38.45
2022-10-24T05:15:15.430Z,31.65
2022-10-24T05:17:42.692Z,39.70
2022-10-24T05:20:12.801Z,34.28
2022-10-24T05:22:48.294Z,33.17
2022-10-24T05:25:20.634Z,31.35
2022-10-24T05:27:52.910Z,33.58
2022-10-24T05:30:20.108Z,35.28
2022-10-24T05:32:49.562Z,36.17
2022-10-24T05:35:21.601Z,38.65
2022-10-24T05:37:48.942Z,33.17
2022-10-24T05:40:16.144Z,37.30
2022-10-24T05:42:48.752Z,34.42
2022-10-24T05:45:21.169Z,31.00
2022-10-24T05:47:48.580Z,39.70
2022-10-24T05:50:18.413Z,42.72
2022-10-24T05:52:47.205Z,32.78
2022-10-24T05:55:18.064Z,28.80
2022-10-24T05:57:50.987Z,34.45
2022-10-24T06:02:50.135Z,36.15
2022-10-24T06:05:20.040Z,37.40
2022-10-24T06:07:49.762Z,35.22
2022-10-24T06:10:21.491Z,33.67
2022-10-24T06:12:52.480Z,30.08
2022-10-24T06:15:21.917Z,28.88
2022-10-24T06:17:51.464Z,30.15
2022-10-24T06:20:21.007Z,27.58
2022-10-24T06:22:51.539Z,31.40
2022-10-24T06:25:23.288Z,29.23
2022-10-24T06:27:53.632Z,27.90
2022-10-24T06:30:23.117Z,26.90
2022-10-24T06:32:52.384Z,31.50
2022-10-24T06:37:59.660Z,32.03
2022-10-24T06:40:29.205Z,28.17
2022-10-24T06:42:58.999Z,27.88
2022-10-24T06:45:28.405Z,31.75
2022-10-24T06:47:58.042Z,25.00
2022-10-24T06:50:28.478Z,28.00
2022-10-24T06:53:00.489Z,31.13
2022-10-24T06:55:33.616Z,27.27
2022-10-24T06:58:01.065Z,29.92
2022-10-24T07:00:30.792Z,39.50
2022-10-24T07:03:02.775Z,33.67
2022-10-24T07:05:34.555Z,30.30
2022-10-24T07:08:01.858Z,29.85
2022-10-24T07:10:33.818Z,29.73
2022-10-24T07:13:03.816Z,29.10
2022-10-24T07:15:35.309Z,32.72
2022-10-24T07:18:13.168Z,31.33
2022-10-24T07:20:42.879Z,28.38
2022-10-24T07:23:13.401Z,26.98
2022-10-24T07:25:44.158Z,37.08
2022-10-24T07:28:14.604Z,28.00
2022-10-24T07:30:44.529Z,29.33
2022-10-24T07:33:12.039Z,31.80
2022-10-24T07:35:42.991Z,25.73
2022-10-24T07:38:17.855Z,24.00
2022-10-24T07:40:46.484Z,27.15
2022-10-24T07:43:17.783Z,27.45
2022-10-24T07:45:52.490Z,28.30
2022-10-24T07:48:22.207Z,21.92
2022-10-24T07:50:49.322Z,22.92
2022-10-24T07:53:26.358Z,25.63
2022-10-24T07:55:54.699Z,21.75
2022-10-24T07:58:21.963Z,24.77
2022-10-24T08:00:49.076Z,26.80
2022-10-24T08:03:20.996Z,18.85
2022-10-24T08:05:57.087Z,27.70
2022-10-24T08:08:36.588Z,21.17
2022-10-24T08:11:14.805Z,17.95
2022-10-24T08:13:46.986Z,29.75
2022-10-24T08:16:16.522Z,22.95
2022-10-24T08:18:46.069Z,24.02
2022-10-24T08:21:14.833Z,16.00
2022-10-24T08:23:46.893Z,21.42
2022-10-24T08:28:47.779Z,20.58
2022-10-24T08:31:19.443Z,14.68
2022-10-24T08:33:52.781Z,20.23
2022-10-24T08:36:27.753Z,17.27
2022-10-24T08:38:58.191Z,17.17
2022-10-24T08:41:30.757Z,17.98
2022-10-24T08:44:01.000Z,19.30
2022-10-24T08:46:27.986Z,21.75
2022-10-24T08:49:20.319Z,18.90
2022-10-24T08:51:53.260Z,17.33
2022-10-24T08:54:25.211Z,19.80
2022-10-24T08:56:59.809Z,21.77
2022-10-24T08:59:30.153Z,16.17
2022-10-24T09:02:04.437Z,18.02
2022-10-24T09:04:42.573Z,23.80
2022-10-24T09:07:19.200Z,18.20
2022-10-24T09:09:58.503Z,12.95
2022-10-24T09:12:33.143Z,14.90
2022-10-24T09:15:00.861Z,14.65
2022-10-24T09:17:34.625Z,18.40
2022-10-24T09:20:18.961Z,13.70
2022-10-24T09:22:48.797Z,23.73
2022-10-24T09:25:22.989Z,22.52
2022-10-24T09:27:52.473Z,20.42
2022-10-24T09:33:31.137Z,19.73
2022-10-24T09:36:05.174Z,21.90
2022-10-24T09:38:35.419Z,22.08
2022-10-24T09:41:26.525Z,19.30
2022-10-24T09:44:01.214Z,22.33
2022-10-24T09:46:45.042Z,17.35
2022-10-24T09:49:20.065Z,18.52
2022-10-24T09:52:18.987Z,19.80
2022-10-24T09:54:47.302Z,16.63
2022-10-24T09:57:18.084Z,16.27
2022-10-24T09:59:48.590Z,15.90
2022-10-24T10:02:29.872Z,19.48
2022-10-24T10:05:05.278Z,14.63
2022-10-24T10:07:41.724Z,21.60
2022-10-24T10:10:37.745Z,15.23
2022-10-24T10:13:20.118Z,19.90
2022-10-24T10:15:56.060Z,15.75
2022-10-24T10:18:30.460Z,16.92
2022-10-24T10:21:13.970Z,19.58
2022-10-24T10:23:46.814Z,17.67
2022-10-24T10:26:28.170Z,17.48
2022-10-24T10:29:20.003Z,13.55
2022-10-24T10:32:19.578Z,13.93
2022-10-24T10:34:54.102Z,12.90
2022-10-24T10:37:26.935Z,16.13
2022-10-24T10:40:15.785Z,11.60
2022-10-24T10:43:06.870Z,9.30
2022-10-24T10:45:54.699Z,14.60
2022-10-24T10:48:49.477Z,11.38
2022-10-24T10:51:43.639Z,9.13
2022-10-24T10:54:42.224Z,12.35
2022-10-24T10:57:17.226Z,16.38
2022-10-24T11:00:21.606Z,9.60
2022-10-24T11:06:04.882Z,8.00
2022-10-24T11:08:53.907Z,10.98
2022-10-24T11:11:36.382Z,12.60
2022-10-24T11:14:19.244Z,16.58
2022-10-24T11:16:50.999Z,10.82
2022-10-24T11:19:40.195Z,16.55
2022-10-24T11:22:17.383Z,19.90
2022-10-24T11:24:53.204Z,10.50
2022-10-24T11:27:26.549Z,8.40
2022-10-24T11:30:03.366Z,11.68
2022-10-24T11:32:46.967Z,13.20
2022-10-24T11:35:26.724Z,9.82
2022-10-24T11:38:08.062Z,11.82
2022-10-24T11:40:44.658Z,16.58
2022-10-24T11:43:28.541Z,13.43
2022-10-24T11:46:05.541Z,11.63
2022-10-24T11:48:53.281Z,13.85
2022-10-24T11:51:37.522Z,9.98
2022-10-24T11:54:31.021Z,7.25
2022-10-24T11:57:03.091Z,8.80
2022-10-24T11:59:32.690Z,6.00
2022-10-24T12:02:26.953Z,8.93
2022-10-24T12:05:26.302Z,7.68
2022-10-24T12:08:11.308Z,6.78
2022-10-24T12:13:47.390Z,8.88
2022-10-24T12:16:35.970Z,11.10
2022-10-24T12:19:10.010Z,11.95
2022-10-24T12:21:45.546Z,8.13
2022-10-24T12:24:32.914Z,13.68
2022-10-24T12:27:04.731Z,11.38
2022-10-24T12:29:37.735Z,10.50
2022-10-24T12:32:31.040Z,9.75
2022-10-24T12:35:28.988Z,13.55
2022-10-24T12:37:50.325Z,9.70
2022-10-24T12:40:47.844Z,10.23
2022-10-24T12:43:34.684Z,9.73
2022-10-24T12:46:22.977Z,9.07
2022-10-24T12:48:59.669Z,14.75
2022-10-24T12:51:36.374Z,8.25
2022-10-24T12:54:11.821Z,6.50
2022-10-24T12:56:51.209Z,9.23
2022-10-24T12:59:21.259Z,16.63
2022-10-24T13:01:51.314Z,9.63
2022-10-24T13:04:23.754Z,8.88
2022-10-24T13:07:21.542Z,11.45
2022-10-24T13:10:03.434Z,8.53
2022-10-24T13:15:22.534Z,18.77
2022-10-24T13:21:15.144Z,10.43
2022-10-24T13:23:47.703Z,10.10
2022-10-24T13:26:48.019Z,10.40
2022-10-24T13:29:35.620Z,8.48
2022-10-24T13:32:05.581Z,13.27
2022-10-24T13:34:50.824Z,16.88
2022-10-24T13:37:28.730Z,15.63
2022-10-24T13:40:32.144Z,9.32
2022-10-24T13:43:14.184Z,7.28
2022-10-24T13:45:53.554Z,8.05
2022-10-24T13:48:27.190Z,10.67
2022-10-24T13:51:10.814Z,15.95
2022-10-24T13:53:50.494Z,10.57
2022-10-24T13:56:21.120Z,17.60
2022-10-24T13:58:49.078Z,25.48
2022-10-24T14:01:28.140Z,15.10
2022-10-24T14:03:56.335Z,9.82
2022-10-24T14:06:31.122Z,11.82
2022-10-24T14:09:07.133Z,11.13
2022-10-24T14:11:48.642Z,19.63
2022-10-24T14:14:31.542Z,17.73
2022-10-24T14:17:23.275Z,17.83
2022-10-24T14:19:57.099Z,13.63
2022-10-24T14:22:36.017Z,14.82
2022-10-24T14:25:24.932Z,24.38
2022-10-24T14:27:57.568Z,14.15
2022-10-24T14:30:33.625Z,15.43
2022-10-24T14:33:23.989Z,18.27
2022-10-24T14:35:55.205Z,15.07
2022-10-24T14:38:28.762Z,18.85
2022-10-24T14:41:08.702Z,20.45
2022-10-24T14:43:42.583Z,14.00
2022-10-24T14:46:13.309Z,16.15
2022-10-24T14:48:44.173Z,15.82
2022-10-24T14:51:26.899Z,12.32
2022-10-24T14:53:57.031Z,13.93
2022-10-24T14:56:36.976Z,13.70
2022-10-24T14:59:07.047Z,20.75
2022-10-24T15:01:34.436Z,25.63
2022-10-24T15:04:09.230Z,14.10
2022-10-24T15:06:39.177Z,19.13
2022-10-24T15:09:11.064Z,22.35
2022-10-24T15:11:47.111Z,17.45
2022-10-24T15:14:36.805Z,20.00
2022-10-24T15:17:18.789Z,34.90
2022-10-24T15:19:50.096Z,50.15
2022-10-24T15:22:26.993Z,22.23
2022-10-24T15:24:59.472Z,20.60
2022-10-24T15:27:40.723Z,27.17
2022-10-24T15:30:20.141Z,19.05
2022-10-24T15:32:48.360Z,21.17
2022-10-24T15:35:20.670Z,18.90
2022-10-24T15:40:32.080Z,24.58
2022-10-24T15:42:59.467Z,23.63
2022-10-24T15:45:27.474Z,23.60
2022-10-24T15:47:56.989Z,25.42
2022-10-24T15:50:24.685Z,19.50
2022-10-24T15:52:56.674Z,18.17
2022-10-24T15:55:31.350Z,19.75
2022-10-24T15:58:01.105Z,23.42
2022-10-24T16:00:33.283Z,23.85
2022-10-24T16:03:01.545Z,28.88
2022-10-24T16:05:38.502Z,24.20
2022-10-24T16:08:14.909Z,22.38
2022-10-24T16:10:43.534Z,26.25
2022-10-24T16:13:16.229Z,27.08
2022-10-24T16:15:44.414Z,24.80
2022-10-24T16:18:12.984Z,27.23
2022-10-24T16:20:41.289Z,40.15
2022-10-24T16:23:10.932Z,27.95
2022-10-24T16:25:40.975Z,34.83
2022-10-24T16:28:10.329Z,25.42
2022-10-24T16:30:40.341Z,38.03
2022-10-24T16:33:09.975Z,57.80
2022-10-24T16:35:42.023Z,40.30
2022-10-24T16:38:13.361Z,35.42
2022-10-24T16:40:43.202Z,34.58
2022-10-24T16:43:15.367Z,32.38
2022-10-24T16:45:47.134Z,38.22
2022-10-24T16:48:16.788Z,26.00
2022-10-24T16:50:46.463Z,30.70
2022-10-24T16:55:52.724Z,32.47
2022-10-24T16:58:22.766Z,31.27
2022-10-24T17:00:50.371Z,30.10
2022-10-24T17:03:17.679Z,30.50
2022-10-24T17:08:21.658Z,31.42
2022-10-24T17:10:53.409Z,27.10
2022-10-24T17:13:28.445Z,25.42
2022-10-24T17:16:00.437Z,31.42
2022-10-24T17:18:30.034Z,31.27
2022-10-24T17:21:02.649Z,28.98
2022-10-24T17:23:36.071Z,31.10
2022-10-24T17:26:18.644Z,34.70
2022-10-24T17:28:51.050Z,35.92
2022-10-24T17:33:52.573Z,35.20
2022-10-24T17:36:28.150Z,34.63
2022-10-24T17:39:05.191Z,43.72
2022-10-24T17:41:39.193Z,42.72
2022-10-24T17:44:12.762Z,30.57
2022-10-24T17:46:42.202Z,28.15
2022-10-24T17:49:10.928Z,30.75
2022-10-24T17:51:45.461Z,29.35
2022-10-24T17:54:15.992Z,31.25
2022-10-24T17:56:48.073Z,58.38
2022-10-24T17:59:17.495Z,67.53
2022-10-24T18:01:47.764Z,32.17
2022-10-24T18:04:15.632Z,35.80
2022-10-24T18:06:43.471Z,31.83
2022-10-24T18:09:11.009Z,26.45
2022-10-24T18:11:39.904Z,43.50
2022-10-24T18:14:09.571Z,35.95
2022-10-24T18:16:41.414Z,36.78
2022-10-24T18:19:11.392Z,41.22
2022-10-24T18:21:38.768Z,44.38
2022-10-24T18:24:07.942Z,34.67
2022-10-24T18:26:37.423Z,34.38
2022-10-24T18:29:05.007Z,29.83
2022-10-24T18:31:37.380Z,31.88
2022-10-24T18:34:08.537Z,31.23
2022-10-24T18:36:38.611Z,34.28
2022-10-24T18:39:06.158Z,31.35
2022-10-24T18:41:46.531Z,34.60
2022-10-24T18:44:23.367Z,30.10
2022-10-24T18:46:55.966Z,29.90
2022-10-24T18:49:23.592Z,33.78
2022-10-24T18:52:06.967Z,41.63
2022-10-24T18:54:43.002Z,35.38
2022-10-24T18:57:24.586Z,39.40
2022-10-24T18:59:58.282Z,28.70
2022-10-24T19:02:52.039Z,35.00
2022-10-24T19:05:24.776Z,41.30
2022-10-24T19:07:57.438Z,34.35
2022-10-24T19:10:28.487Z,31.50
2022-10-24T19:12:58.353Z,31.20
2022-10-24T19:15:33.125Z,29.25
2022-10-24T19:18:00.405Z,28.00
2022-10-24T19:20:33.582Z,25.33
2022-10-24T19:23:05.068Z,29.90
2022-10-24T19:25:35.575Z,29.75
2022-10-24T19:28:07.491Z,26.88
2022-10-24T19:30:34.704Z,24.60
2022-10-24T19:33:04.214Z,22.90
2022-10-24T19:35:45.083Z,27.77
2022-10-24T19:38:17.813Z,26.73
2022-10-24T19:40:58.377Z,31.13
2022-10-24T19:43:32.109Z,35.83
2022-10-24T19:46:21.085Z,34.40
2022-10-24T19:48:53.356Z,31.70
2022-10-24T19:51:25.275Z,31.15
2022-10-24T19:53:53.188Z,35.70
2022-10-24T19:56:26.810Z,37.08
2022-10-24T19:58:59.125Z,30.73
2022-10-24T20:01:30.239Z,27.20
2022-10-24T20:04:00.282Z,43.95
2022-10-24T20:06:29.642Z,40.72
2022-10-24T20:09:02.469Z,57.30
2022-10-24T20:11:30.405Z,46.90
2022-10-24T20:14:04.667Z,44.08
2022-10-24T20:16:33.478Z,37.22
2022-10-24T20:19:06.407Z,30.88
2022-10-24T20:21:37.599Z,32.17
2022-10-24T20:24:06.267Z,37.40
2022-10-24T20:26:35.750Z,36.63
2022-10-24T20:29:03.195Z,36.40
2022-10-24T20:31:33.444Z,36.50
2022-10-24T20:34:06.899Z,30.40
2022-10-24T20:36:42.841Z,27.60
2022-10-24T20:39:15.988Z,33.97
2022-10-24T20:41:51.806Z,29.65
2022-10-24T20:44:23.641Z,24.25
2022-10-24T20:46:50.731Z,28.55
2022-10-24T20:49:23.179Z,26.65
2022-10-24T20:51:57.338Z,22.60
2022-10-24T20:54:31.384Z,30.77
2022-10-24T20:56:58.683Z,24.08
2022-10-24T20:59:25.915Z,29.17
2022-10-24T21:01:55.674Z,22.80
2022-10-24T21:04:23.102Z,27.65
2022-10-24T21:06:55.421Z,36.45
2022-10-24T21:09:24.871Z,23.67
2022-10-24T21:11:54.088Z,25.90
2022-10-24T21:14:23.612Z,30.77
2022-10-24T21:16:55.428Z,27.10
2022-10-24T21:19:22.846Z,23.80
2022-10-24T21:21:49.922Z,22.63
2022-10-24T21:24:19.898Z,23.92
2022-10-24T21:26:46.993Z,27.10
2022-10-24T21:29:32.777Z,32.85
2022-10-24T21:32:03.544Z,24.67
2022-10-24T21:34:34.683Z,24.23
2022-10-24T21:37:05.213Z,22.48
2022-10-24T21:39:41.788Z,24.30
2022-10-24T21:42:13.649Z,23.20
2022-10-24T21:44:40.996Z,25.38
2022-10-24T21:47:15.171Z,28.60
2022-10-24T21:49:44.947Z,23.92
2022-10-24T21:52:16.737Z,26.65
2022-10-24T21:57:10.995Z,23.95
2022-10-24T21:59:40.494Z,30.90
2022-10-24T22:04:42.905Z,25.15
2022-10-24T22:07:10.098Z,28.70
2022-10-24T22:09:42.081Z,28.50
2022-10-24T22:12:11.194Z,26.60
2022-10-24T22:14:38.498Z,21.73
2022-10-24T22:17:10.359Z,21.05
2022-10-24T22:19:40.072Z,21.52
2022-10-24T22:22:07.422Z,23.17
2022-10-24T22:24:36.896Z,20.42
2022-10-24T22:27:04.165Z,29.63
2022-10-24T22:29:33.755Z,23.15
2022-10-24T22:32:00.980Z,19.35
2022-10-24T22:34:31.453Z,21.75
2022-10-24T22:37:01.309Z,19.13
2022-10-24T22:39:33.226Z,16.20
2022-10-24T22:44:30.050Z,20.08
2022-10-24T22:47:16.102Z,15.10
2022-10-24T22:50:02.115Z,12.70
2022-10-24T22:52:32.868Z,17.30
2022-10-24T22:55:00.216Z,19.58
2022-10-24T22:57:32.740Z,16.40
2022-10-24T23:00:02.622Z,21.38
2022-10-24T23:02:40.882Z,17.85
2022-10-24T23:05:37.677Z,19.50
2022-10-24T23:08:11.784Z,27.75
2022-10-24T23:13:12.245Z,29.48
2022-10-24T23:15:39.592Z,29.50
2022-10-24T23:18:11.144Z,22.63
2022-10-24T23:20:51.893Z,26.02
2022-10-24T23:23:29.338Z,26.77
2022-10-24T23:26:08.912Z,22.60
2022-10-24T23:28:56.368Z,22.23
2022-10-24T23:31:23.713Z,26.60
2022-10-24T23:33:55.846Z,19.17
2022-10-24T23:36:26.436Z,25.77
2022-10-24T23:39:02.428Z,23.08
2022-10-24T23:41:31.861Z,25.15
2022-10-24T23:43:59.762Z,27.98
2022-10-24T23:46:33.973Z,31.55
2022-10-24T23:49:45.362Z,28.63
2022-10-24T23:52:28.191Z,21.40
2022-10-24T23:54:56.149Z,19.70
2022-10-24T23:57:27.794Z,16.45
2022-10-24T23:59:55.064Z,20.98
